KAKH/AKH METAR and TAF weather

Enter ICAO airport designator
Station Type Date Time Source
KAKH METAR 2019/12/13 22:26 UTC NOAA

KAKH 132226Z AUTO 01007KT 5SM -RA BR OVC004 05/03 A2991 RMK AO2 P0003 T00500028


Station Type Date Time Source
KAKH Decoded METAR 2019/12/13 22:26 UTC NOAA

GASTONIA MUNICIPAL AIRPORT, NC, United States (KAKH) 35-12N 81-09W 243M
Dec 13, 2019 - 05:26 PM EST / 2019.12.13 2226 UTC
Wind: from the N (010 degrees) at 8 MPH (7 KT):0
Visibility: 5 mile(s):0
Sky conditions: overcast
Weather: light rain; mist
Precipitation last hour: 0.03 inches
Temperature: 41.0 F (5.0 C)
Dew Point: 37.0 F (2.8 C)
Relative Humidity: 85%
Pressure (altimeter): 29.91 in. Hg (1012 hPa)
ob: KAKH 132226Z AUTO 01007KT 5SM -RA BR OVC004 05/03 A2991 RMK AO2 P0003 T00500028
cycle: 22

Station Type Date Time Source
KAKH TAF UTC NOAA

Error!

Example: see airport list